sensor_id;sensor_type;location;lat;lon;timestamp;temperature;humidity
1778;DHT22;886;50.082;8.222;2023-04-07T00:00:31;9.60;99.90
1778;DHT22;886;50.082;8.222;2023-04-07T00:02:59;9.60;99.90
1778;DHT22;886;50.082;8.222;2023-04-07T00:05:45;9.60;99.90
1778;DHT22;886;50.082;8.222;2023-04-07T00:08:12;9.70;99.90
1778;DHT22;886;50.082;8.222;2023-04-07T00:10:40;9.70;99.90
1778;DHT22;886;50.082;8.222;2023-04-07T00:13:07;9.60;99.90
1778;DHT22;886;50.082;8.222;2023-04-07T00:15:34;9.60;99.90
1778;DHT22;886;50.082;8.222;2023-04-07T00:18:03;9.60;99.90
1778;DHT22;886;50.082;8.222;2023-04-07T00:20:30;9.60;99.90
1778;DHT22;886;50.082;8.222;2023-04-07T00:22:57;9.60;99.90
1778;DHT22;886;50.082;8.222;2023-04-07T00:25:25;9.70;99.90
1778;DHT22;886;50.082;8.222;2023-04-07T00:27:52;9.60;99.90
1778;DHT22;886;50.082;8.222;2023-04-07T00:30:19;9.70;99.90
1778;DHT22;886;50.082;8.222;2023-04-07T00:32:46;9.70;99.90
1778;DHT22;886;50.082;8.222;2023-04-07T00:35:15;9.60;99.90
1778;DHT22;886;50.082;8.222;2023-04-07T00:37:43;9.60;99.90
1778;DHT22;886;50.082;8.222;2023-04-07T00:40:11;9.50;99.90
1778;DHT22;886;50.082;8.222;2023-04-07T00:42:38;9.60;99.90
1778;DHT22;886;50.082;8.222;2023-04-07T00:45:06;9.70;99.90
1778;DHT22;886;50.082;8.222;2023-04-07T00:47:35;9.60;99.90
1778;DHT22;886;50.082;8.222;2023-04-07T00:50:03;9.60;99.90
1778;DHT22;886;50.082;8.222;2023-04-07T00:52:33;9.60;99.90
1778;DHT22;886;50.082;8.222;2023-04-07T00:55:00;9.60;99.90
1778;DHT22;886;50.082;8.222;2023-04-07T00:57:28;9.60;99.90
1778;DHT22;886;50.082;8.222;2023-04-07T00:59:55;9.60;99.90
1778;DHT22;886;50.082;8.222;2023-04-07T01:02:30;9.60;99.90
1778;DHT22;886;50.082;8.222;2023-04-07T01:05:07;9.60;99.90
1778;DHT22;886;50.082;8.222;2023-04-07T01:07:47;9.60;99.90
1778;DHT22;886;50.082;8.222;2023-04-07T01:10:24;9.60;99.90
1778;DHT22;886;50.082;8.222;2023-04-07T01:12:59;9.70;99.90
1778;DHT22;886;50.082;8.222;2023-04-07T01:15:30;9.50;99.90
1778;DHT22;886;50.082;8.222;2023-04-07T01:18:01;9.60;99.90
1778;DHT22;886;50.082;8.222;2023-04-07T01:20:34;9.60;99.90
1778;DHT22;886;50.082;8.222;2023-04-07T01:23:05;9.70;99.90
1778;DHT22;886;50.082;8.222;2023-04-07T01:25:53;9.60;99.90
1778;DHT22;886;50.082;8.222;2023-04-07T01:28:40;9.60;99.90
1778;DHT22;886;50.082;8.222;2023-04-07T01:31:16;9.70;99.90
1778;DHT22;886;50.082;8.222;2023-04-07T01:33:44;9.70;99.90
1778;DHT22;886;50.082;8.222;2023-04-07T01:36:12;9.70;99.90
1778;DHT22;886;50.082;8.222;2023-04-07T01:38:42;9.70;99.90
1778;DHT22;886;50.082;8.222;2023-04-07T01:41:09;9.60;99.90
1778;DHT22;886;50.082;8.222;2023-04-07T01:43:38;9.60;99.90
1778;DHT22;886;50.082;8.222;2023-04-07T01:46:07;9.60;99.90
1778;DHT22;886;50.082;8.222;2023-04-07T01:48:36;9.60;99.90
1778;DHT22;886;50.082;8.222;2023-04-07T01:51:07;9.70;99.90
1778;DHT22;886;50.082;8.222;2023-04-07T01:53:37;9.60;99.90
1778;DHT22;886;50.082;8.222;2023-04-07T01:56:05;9.60;99.90
1778;DHT22;886;50.082;8.222;2023-04-07T01:58:33;9.70;99.90
1778;DHT22;886;50.082;8.222;2023-04-07T02:01:00;9.70;99.90
1778;DHT22;886;50.082;8.222;2023-04-07T02:03:31;9.60;99.90
1778;DHT22;886;50.082;8.222;2023-04-07T02:06:07;9.60;99.90
1778;DHT22;886;50.082;8.222;2023-04-07T02:08:38;9.60;99.90
1778;DHT22;886;50.082;8.222;2023-04-07T02:11:10;9.50;99.90
1778;DHT22;886;50.082;8.222;2023-04-07T02:13:39;9.50;99.90
1778;DHT22;886;50.082;8.222;2023-04-07T02:16:09;9.60;99.90
1778;DHT22;886;50.082;8.222;2023-04-07T02:18:38;9.60;99.90
1778;DHT22;886;50.082;8.222;2023-04-07T02:21:06;9.50;99.90
1778;DHT22;886;50.082;8.222;2023-04-07T02:23:35;9.50;99.90
1778;DHT22;886;50.082;8.222;2023-04-07T02:26:02;9.50;99.90
1778;DHT22;886;50.082;8.222;2023-04-07T02:28:29;9.60;99.90
1778;DHT22;886;50.082;8.222;2023-04-07T02:30:56;9.70;99.90
1778;DHT22;886;50.082;8.222;2023-04-07T02:33:24;9.60;99.90
1778;DHT22;886;50.082;8.222;2023-04-07T02:35:52;9.60;99.90
1778;DHT22;886;50.082;8.222;2023-04-07T02:38:20;9.50;99.90
1778;DHT22;886;50.082;8.222;2023-04-07T02:40:47;9.50;99.90
1778;DHT22;886;50.082;8.222;2023-04-07T02:43:14;9.50;99.90
1778;DHT22;886;50.082;8.222;2023-04-07T02:45:43;9.50;99.90
1778;DHT22;886;50.082;8.222;2023-04-07T02:48:10;9.50;99.90
1778;DHT22;886;50.082;8.222;2023-04-07T02:50:37;9.40;99.90
1778;DHT22;886;50.082;8.222;2023-04-07T02:53:06;9.30;99.90
1778;DHT22;886;50.082;8.222;2023-04-07T02:55:33;9.40;99.90
1778;DHT22;886;50.082;8.222;2023-04-07T02:57:59;9.40;99.90
1778;DHT22;886;50.082;8.222;2023-04-07T03:00:27;9.30;99.90
1778;DHT22;886;50.082;8.222;2023-04-07T03:02:54;9.40;99.90
1778;DHT22;886;50.082;8.222;2023-04-07T03:05:21;9.40;99.90
1778;DHT22;886;50.082;8.222;2023-04-07T03:07:49;9.30;99.90
1778;DHT22;886;50.082;8.222;2023-04-07T03:10:17;9.30;99.90
1778;DHT22;886;50.082;8.222;2023-04-07T03:12:45;9.30;99.90
1778;DHT22;886;50.082;8.222;2023-04-07T03:15:12;9.30;99.90
1778;DHT22;886;50.082;8.222;2023-04-07T03:17:39;9.30;99.90
1778;DHT22;886;50.082;8.222;2023-04-07T03:20:07;9.30;99.90
1778;DHT22;886;50.082;8.222;2023-04-07T03:22:35;9.40;99.90
1778;DHT22;886;50.082;8.222;2023-04-07T03:25:02;9.40;99.90
1778;DHT22;886;50.082;8.222;2023-04-07T03:27:30;9.40;99.90
1778;DHT22;886;50.082;8.222;2023-04-07T03:29:57;9.40;99.90
1778;DHT22;886;50.082;8.222;2023-04-07T03:32:24;9.40;99.90
1778;DHT22;886;50.082;8.222;2023-04-07T03:34:52;9.40;99.90
1778;DHT22;886;50.082;8.222;2023-04-07T03:37:19;9.30;99.90
1778;DHT22;886;50.082;8.222;2023-04-07T03:39:46;9.30;99.90
1778;DHT22;886;50.082;8.222;2023-04-07T03:42:15;9.20;99.90
1778;DHT22;886;50.082;8.222;2023-04-07T03:44:44;9.20;99.90
1778;DHT22;886;50.082;8.222;2023-04-07T03:47:11;9.30;99.90
1778;DHT22;886;50.082;8.222;2023-04-07T03:49:38;9.30;99.90
1778;DHT22;886;50.082;8.222;2023-04-07T03:52:05;9.20;99.90
1778;DHT22;886;50.082;8.222;2023-04-07T03:54:32;9.30;99.90
1778;DHT22;886;50.082;8.222;2023-04-07T03:57:01;9.20;99.90
1778;DHT22;886;50.082;8.222;2023-04-07T03:59:29;9.20;99.90
1778;DHT22;886;50.082;8.222;2023-04-07T04:01:58;9.20;99.90
1778;DHT22;886;50.082;8.222;2023-04-07T04:04:25;9.20;99.90
1778;DHT22;886;50.082;8.222;2023-04-07T04:06:52;9.20;99.90
1778;DHT22;886;50.082;8.222;2023-04-07T04:09:20;9.10;99.90
1778;DHT22;886;50.082;8.222;2023-04-07T04:11:47;9.20;99.90
1778;DHT22;886;50.082;8.222;2023-04-07T04:14:15;9.10;99.90
1778;DHT22;886;50.082;8.222;2023-04-07T04:16:42;9.20;99.90
1778;DHT22;886;50.082;8.222;2023-04-07T04:19:11;9.20;99.90
1778;DHT22;886;50.082;8.222;2023-04-07T04:21:38;9.30;99.90
1778;DHT22;886;50.082;8.222;2023-04-07T04:24:05;9.30;99.90
1778;DHT22;886;50.082;8.222;2023-04-07T04:26:32;9.40;99.90
1778;DHT22;886;50.082;8.222;2023-04-07T04:29:00;9.40;99.90
1778;DHT22;886;50.082;8.222;2023-04-07T04:31:28;9.40;99.90
1778;DHT22;886;50.082;8.222;2023-04-07T04:33:56;9.40;99.90
1778;DHT22;886;50.082;8.222;2023-04-07T04:36:24;9.30;99.90
1778;DHT22;886;50.082;8.222;2023-04-07T04:38:52;9.30;99.90
1778;DHT22;886;50.082;8.222;2023-04-07T04:41:19;9.30;99.90
1778;DHT22;886;50.082;8.222;2023-04-07T04:43:46;9.30;99.90
1778;DHT22;886;50.082;8.222;2023-04-07T04:46:14;9.30;99.90
1778;DHT22;886;50.082;8.222;2023-04-07T04:48:41;9.30;99.90
1778;DHT22;886;50.082;8.222;2023-04-07T04:51:08;9.20;99.90
1778;DHT22;886;50.082;8.222;2023-04-07T04:53:37;9.30;99.90
1778;DHT22;886;50.082;8.222;2023-04-07T04:56:04;9.40;99.90
1778;DHT22;886;50.082;8.222;2023-04-07T04:58:33;9.30;99.90
1778;DHT22;886;50.082;8.222;2023-04-07T05:01:00;9.30;99.90
1778;DHT22;886;50.082;8.222;2023-04-07T05:03:28;9.20;99.90
1778;DHT22;886;50.082;8.222;2023-04-07T05:05:56;9.20;99.90
1778;DHT22;886;50.082;8.222;2023-04-07T05:08:23;9.20;99.90
1778;DHT22;886;50.082;8.222;2023-04-07T05:10:52;9.30;99.90
1778;DHT22;886;50.082;8.222;2023-04-07T05:13:19;9.30;99.90
1778;DHT22;886;50.082;8.222;2023-04-07T05:15:46;9.30;99.90
1778;DHT22;886;50.082;8.222;2023-04-07T05:18:13;9.30;99.90
1778;DHT22;886;50.082;8.222;2023-04-07T05:20:41;9.20;99.90
1778;DHT22;886;50.082;8.222;2023-04-07T05:23:09;9.30;99.90
1778;DHT22;886;50.082;8.222;2023-04-07T05:25:36;9.20;99.90
1778;DHT22;886;50.082;8.222;2023-04-07T05:28:05;9.20;99.90
1778;DHT22;886;50.082;8.222;2023-04-07T05:30:33;9.20;99.90
1778;DHT22;886;50.082;8.222;2023-04-07T05:33:00;9.30;99.90
1778;DHT22;886;50.082;8.222;2023-04-07T05:35:27;9.30;99.90
1778;DHT22;886;50.082;8.222;2023-04-07T05:37:54;9.30;99.90
1778;DHT22;886;50.082;8.222;2023-04-07T05:40:22;9.30;99.90
1778;DHT22;886;50.082;8.222;2023-04-07T05:42:49;9.30;99.90
1778;DHT22;886;50.082;8.222;2023-04-07T05:45:19;9.30;99.90
1778;DHT22;886;50.082;8.222;2023-04-07T05:47:47;9.30;99.90
1778;DHT22;886;50.082;8.222;2023-04-07T05:50:16;9.30;99.90
1778;DHT22;886;50.082;8.222;2023-04-07T05:52:44;9.40;99.90
1778;DHT22;886;50.082;8.222;2023-04-07T05:55:11;9.40;99.90
1778;DHT22;886;50.082;8.222;2023-04-07T05:57:38;9.40;99.90
1778;DHT22;886;50.082;8.222;2023-04-07T06:00:07;9.40;99.90
1778;DHT22;886;50.082;8.222;2023-04-07T06:02:36;9.40;99.90
1778;DHT22;886;50.082;8.222;2023-04-07T06:05:06;9.30;99.90
1778;DHT22;886;50.082;8.222;2023-04-07T06:07:51;9.30;99.90
1778;DHT22;886;50.082;8.222;2023-04-07T06:10:18;9.30;99.90
1778;DHT22;886;50.082;8.222;2023-04-07T06:12:45;9.40;99.90
1778;DHT22;886;50.082;8.222;2023-04-07T06:15:12;9.40;99.90
1778;DHT22;886;50.082;8.222;2023-04-07T06:17:41;9.30;99.90
1778;DHT22;886;50.082;8.222;2023-04-07T06:20:10;9.30;99.90
1778;DHT22;886;50.082;8.222;2023-04-07T06:22:38;9.40;99.90
1778;DHT22;886;50.082;8.222;2023-04-07T06:25:06;9.30;99.90
1778;DHT22;886;50.082;8.222;2023-04-07T06:27:34;9.40;99.90
1778;DHT22;886;50.082;8.222;2023-04-07T06:30:01;9.40;99.90
1778;DHT22;886;50.082;8.222;2023-04-07T06:32:29;9.40;99.90
1778;DHT22;886;50.082;8.222;2023-04-07T06:34:58;9.50;99.90
1778;DHT22;886;50.082;8.222;2023-04-07T06:39:52;9.40;99.90
1778;DHT22;886;50.082;8.222;2023-04-07T06:42:20;9.40;99.90
1778;DHT22;886;50.082;8.222;2023-04-07T06:44:47;9.30;99.90
1778;DHT22;886;50.082;8.222;2023-04-07T06:47:14;9.50;99.90
1778;DHT22;886;50.082;8.222;2023-04-07T06:49:41;9.50;99.90
1778;DHT22;886;50.082;8.222;2023-04-07T06:52:10;9.50;99.90
1778;DHT22;886;50.082;8.222;2023-04-07T06:54:38;9.60;99.90
1778;DHT22;886;50.082;8.222;2023-04-07T06:57:05;9.60;99.90
1778;DHT22;886;50.082;8.222;2023-04-07T06:59:37;9.50;99.90
1778;DHT22;886;50.082;8.222;2023-04-07T07:02:05;9.40;99.90
1778;DHT22;886;50.082;8.222;2023-04-07T07:04:33;9.40;99.90
1778;DHT22;886;50.082;8.222;2023-04-07T07:07:01;9.50;99.90
1778;DHT22;886;50.082;8.222;2023-04-07T07:09:30;9.50;99.90
1778;DHT22;886;50.082;8.222;2023-04-07T07:11:57;9.50;99.90
1778;DHT22;886;50.082;8.222;2023-04-07T07:14:25;9.60;99.90
1778;DHT22;886;50.082;8.222;2023-04-07T07:16:52;9.50;99.90
1778;DHT22;886;50.082;8.222;2023-04-07T07:19:19;9.50;99.90
1778;DHT22;886;50.082;8.222;2023-04-07T07:21:47;9.50;99.90
1778;DHT22;886;50.082;8.222;2023-04-07T07:24:14;9.60;99.90
1778;DHT22;886;50.082;8.222;2023-04-07T07:27:01;9.60;99.90
1778;DHT22;886;50.082;8.222;2023-04-07T07:29:29;9.60;99.90
1778;DHT22;886;50.082;8.222;2023-04-07T07:31:56;9.60;99.90
1778;DHT22;886;50.082;8.222;2023-04-07T07:34:41;9.50;99.90
1778;DHT22;886;50.082;8.222;2023-04-07T07:37:08;9.50;99.90
1778;DHT22;886;50.082;8.222;2023-04-07T07:39:36;9.50;99.90
1778;DHT22;886;50.082;8.222;2023-04-07T07:42:04;9.70;99.90
1778;DHT22;886;50.082;8.222;2023-04-07T07:44:31;9.70;99.90
1778;DHT22;886;50.082;8.222;2023-04-07T07:46:58;9.70;99.90
1778;DHT22;886;50.082;8.222;2023-04-07T07:49:25;9.80;99.90
1778;DHT22;886;50.082;8.222;2023-04-07T07:51:52;9.80;99.90
1778;DHT22;886;50.082;8.222;2023-04-07T07:54:19;9.70;99.90
1778;DHT22;886;50.082;8.222;2023-04-07T07:56:47;9.80;99.90
1778;DHT22;886;50.082;8.222;2023-04-07T07:59:15;9.80;99.90
1778;DHT22;886;50.082;8.222;2023-04-07T08:01:43;9.80;99.90
1778;DHT22;886;50.082;8.222;2023-04-07T08:04:10;9.90;99.90
1778;DHT22;886;50.082;8.222;2023-04-07T08:06:38;9.90;99.90
1778;DHT22;886;50.082;8.222;2023-04-07T08:09:05;9.90;99.90
1778;DHT22;886;50.082;8.222;2023-04-07T08:11:32;9.90;99.90
1778;DHT22;886;50.082;8.222;2023-04-07T08:14:18;9.90;99.90
1778;DHT22;886;50.082;8.222;2023-04-07T08:16:46;10.00;99.90
1778;DHT22;886;50.082;8.222;2023-04-07T08:19:13;10.00;99.90
1778;DHT22;886;50.082;8.222;2023-04-07T08:21:41;10.00;99.90
1778;DHT22;886;50.082;8.222;2023-04-07T08:24:08;10.00;99.90
1778;DHT22;886;50.082;8.222;2023-04-07T08:26:36;10.00;99.90
1778;DHT22;886;50.082;8.222;2023-04-07T08:29:03;10.10;99.90
1778;DHT22;886;50.082;8.222;2023-04-07T08:31:31;10.00;99.90
1778;DHT22;886;50.082;8.222;2023-04-07T08:33:58;10.00;99.90
1778;DHT22;886;50.082;8.222;2023-04-07T08:36:25;10.00;99.90
1778;DHT22;886;50.082;8.222;2023-04-07T08:38:53;10.00;99.90
1778;DHT22;886;50.082;8.222;2023-04-07T08:41:26;10.00;99.90
1778;DHT22;886;50.082;8.222;2023-04-07T08:43:57;10.00;99.90
1778;DHT22;886;50.082;8.222;2023-04-07T08:46:24;9.90;99.90
1778;DHT22;886;50.082;8.222;2023-04-07T08:48:55;9.80;99.90
1778;DHT22;886;50.082;8.222;2023-04-07T08:51:26;9.80;99.90
1778;DHT22;886;50.082;8.222;2023-04-07T08:54:01;10.00;99.90
1778;DHT22;886;50.082;8.222;2023-04-07T08:56:31;10.00;99.90
1778;DHT22;886;50.082;8.222;2023-04-07T08:59:00;10.00;99.90
1778;DHT22;886;50.082;8.222;2023-04-07T09:01:28;10.00;99.90
1778;DHT22;886;50.082;8.222;2023-04-07T09:03:58;10.10;99.90
1778;DHT22;886;50.082;8.222;2023-04-07T09:06:27;10.20;99.90
1778;DHT22;886;50.082;8.222;2023-04-07T09:08:57;10.10;99.90
1778;DHT22;886;50.082;8.222;2023-04-07T09:11:25;10.10;99.90
1778;DHT22;886;50.082;8.222;2023-04-07T09:13:54;10.10;99.90
1778;DHT22;886;50.082;8.222;2023-04-07T09:16:22;10.20;99.90
1778;DHT22;886;50.082;8.222;2023-04-07T09:18:52;10.20;99.90
1778;DHT22;886;50.082;8.222;2023-04-07T09:21:20;10.20;99.90
1778;DHT22;886;50.082;8.222;2023-04-07T09:23:48;10.30;99.90
1778;DHT22;886;50.082;8.222;2023-04-07T09:26:21;10.30;99.90
1778;DHT22;886;50.082;8.222;2023-04-07T09:28:52;10.30;99.90
1778;DHT22;886;50.082;8.222;2023-04-07T09:31:21;10.30;99.90
1778;DHT22;886;50.082;8.222;2023-04-07T09:33:49;10.30;99.90
1778;DHT22;886;50.082;8.222;2023-04-07T09:36:16;10.40;99.90
1778;DHT22;886;50.082;8.222;2023-04-07T09:38:45;10.30;99.90
1778;DHT22;886;50.082;8.222;2023-04-07T09:41:13;10.30;99.90
1778;DHT22;886;50.082;8.222;2023-04-07T09:43:43;10.40;99.90
1778;DHT22;886;50.082;8.222;2023-04-07T09:46:13;10.40;99.90
1778;DHT22;886;50.082;8.222;2023-04-07T09:48:42;10.30;99.90
1778;DHT22;886;50.082;8.222;2023-04-07T09:51:12;10.40;99.90
1778;DHT22;886;50.082;8.222;2023-04-07T09:53:46;10.30;99.90
1778;DHT22;886;50.082;8.222;2023-04-07T09:56:15;10.40;99.90
1778;DHT22;886;50.082;8.222;2023-04-07T09:58:45;10.40;99.90
1778;DHT22;886;50.082;8.222;2023-04-07T10:01:14;10.40;99.90
1778;DHT22;886;50.082;8.222;2023-04-07T10:03:44;10.40;99.90
1778;DHT22;886;50.082;8.222;2023-04-07T10:06:17;10.40;99.90
1778;DHT22;886;50.082;8.222;2023-04-07T10:08:48;10.50;99.90
1778;DHT22;886;50.082;8.222;2023-04-07T10:11:15;10.60;99.90
1778;DHT22;886;50.082;8.222;2023-04-07T10:13:44;10.70;99.90
1778;DHT22;886;50.082;8.222;2023-04-07T10:16:12;10.70;99.90
1778;DHT22;886;50.082;8.222;2023-04-07T10:18:40;10.70;99.90
1778;DHT22;886;50.082;8.222;2023-04-07T10:21:09;10.70;99.90
1778;DHT22;886;50.082;8.222;2023-04-07T10:23:52;10.60;99.90
1778;DHT22;886;50.082;8.222;2023-04-07T10:26:25;10.60;99.90
1778;DHT22;886;50.082;8.222;2023-04-07T10:28:59;10.70;99.90
1778;DHT22;886;50.082;8.222;2023-04-07T10:31:28;10.80;99.90
1778;DHT22;886;50.082;8.222;2023-04-07T10:33:56;10.80;99.90
1778;DHT22;886;50.082;8.222;2023-04-07T10:36:23;10.90;99.90
1778;DHT22;886;50.082;8.222;2023-04-07T10:39:20;11.00;99.90
1778;DHT22;886;50.082;8.222;2023-04-07T10:41:47;11.10;99.90
1778;DHT22;886;50.082;8.222;2023-04-07T10:44:46;11.10;99.90
1778;DHT22;886;50.082;8.222;2023-04-07T10:47:14;11.20;99.90
1778;DHT22;886;50.082;8.222;2023-04-07T10:50:16;11.30;99.90
1778;DHT22;886;50.082;8.222;2023-04-07T10:52:44;11.30;99.90
1778;DHT22;886;50.082;8.222;2023-04-07T10:55:44;11.20;99.90
1778;DHT22;886;50.082;8.222;2023-04-07T10:58:16;11.20;99.90
1778;DHT22;886;50.082;8.222;2023-04-07T11:01:16;11.20;99.90
1778;DHT22;886;50.082;8.222;2023-04-07T11:03:53;11.20;99.90
1778;DHT22;886;50.082;8.222;2023-04-07T11:06:22;11.20;99.90
1778;DHT22;886;50.082;8.222;2023-04-07T11:08:50;11.10;99.90
1778;DHT22;886;50.082;8.222;2023-04-07T11:11:34;11.20;99.90
1778;DHT22;886;50.082;8.222;2023-04-07T11:14:05;11.30;99.90
1778;DHT22;886;50.082;8.222;2023-04-07T11:16:40;11.30;99.90
1778;DHT22;886;50.082;8.222;2023-04-07T11:19:09;11.30;99.90
1778;DHT22;886;50.082;8.222;2023-04-07T11:21:36;11.30;99.90
1778;DHT22;886;50.082;8.222;2023-04-07T11:24:03;11.30;99.90
1778;DHT22;886;50.082;8.222;2023-04-07T11:26:38;11.30;99.90
1778;DHT22;886;50.082;8.222;2023-04-07T11:29:06;11.30;99.90
1778;DHT22;886;50.082;8.222;2023-04-07T11:31:33;11.30;99.90
1778;DHT22;886;50.082;8.222;2023-04-07T11:34:02;11.30;99.90
1778;DHT22;886;50.082;8.222;2023-04-07T11:36:32;11.40;99.90
1778;DHT22;886;50.082;8.222;2023-04-07T11:39:01;11.30;99.90
1778;DHT22;886;50.082;8.222;2023-04-07T11:41:30;11.40;99.90
1778;DHT22;886;50.082;8.222;2023-04-07T11:44:07;11.40;99.90
1778;DHT22;886;50.082;8.222;2023-04-07T11:46:36;11.40;99.90
1778;DHT22;886;50.082;8.222;2023-04-07T11:49:19;11.40;99.90
1778;DHT22;886;50.082;8.222;2023-04-07T11:51:47;11.30;99.90
1778;DHT22;886;50.082;8.222;2023-04-07T11:54:14;11.40;99.90
1778;DHT22;886;50.082;8.222;2023-04-07T11:56:43;11.40;99.90
1778;DHT22;886;50.082;8.222;2023-04-07T11:59:21;11.50;99.90
1778;DHT22;886;50.082;8.222;2023-04-07T12:01:49;11.50;99.90
1778;DHT22;886;50.082;8.222;2023-04-07T12:04:18;11.60;99.90
1778;DHT22;886;50.082;8.222;2023-04-07T12:06:47;11.50;99.90
1778;DHT22;886;50.082;8.222;2023-04-07T12:09:26;11.50;99.90
1778;DHT22;886;50.082;8.222;2023-04-07T12:11:55;11.40;99.90
1778;DHT22;886;50.082;8.222;2023-04-07T12:14:25;11.40;99.90
1778;DHT22;886;50.082;8.222;2023-04-07T12:16:54;11.30;99.90
1778;DHT22;886;50.082;8.222;2023-04-07T12:19:24;11.30;99.90
1778;DHT22;886;50.082;8.222;2023-04-07T12:21:52;11.30;99.90
1778;DHT22;886;50.082;8.222;2023-04-07T12:24:19;11.30;99.90
1778;DHT22;886;50.082;8.222;2023-04-07T12:26:46;11.30;99.90
1778;DHT22;886;50.082;8.222;2023-04-07T12:29:13;11.20;99.90
1778;DHT22;886;50.082;8.222;2023-04-07T12:31:43;11.20;99.90
1778;DHT22;886;50.082;8.222;2023-04-07T12:34:11;11.20;99.90
1778;DHT22;886;50.082;8.222;2023-04-07T12:36:38;11.30;99.90
1778;DHT22;886;50.082;8.222;2023-04-07T12:39:05;11.30;99.90
1778;DHT22;886;50.082;8.222;2023-04-07T12:41:33;11.30;99.90
1778;DHT22;886;50.082;8.222;2023-04-07T12:44:00;11.30;99.90
1778;DHT22;886;50.082;8.222;2023-04-07T12:46:27;11.20;99.90
1778;DHT22;886;50.082;8.222;2023-04-07T12:48:56;11.20;99.90
1778;DHT22;886;50.082;8.222;2023-04-07T12:51:23;11.20;99.90
1778;DHT22;886;50.082;8.222;2023-04-07T12:53:50;11.20;99.90
1778;DHT22;886;50.082;8.222;2023-04-07T12:56:17;11.20;99.90
1778;DHT22;886;50.082;8.222;2023-04-07T12:58:44;11.20;99.90
1778;DHT22;886;50.082;8.222;2023-04-07T13:01:12;11.20;99.90
1778;DHT22;886;50.082;8.222;2023-04-07T13:03:40;11.10;99.90
1778;DHT22;886;50.082;8.222;2023-04-07T13:06:08;11.10;99.90
1778;DHT22;886;50.082;8.222;2023-04-07T13:08:36;11.00;99.90
1778;DHT22;886;50.082;8.222;2023-04-07T13:11:03;11.00;99.90
1778;DHT22;886;50.082;8.222;2023-04-07T13:13:31;11.00;99.90
1778;DHT22;886;50.082;8.222;2023-04-07T13:15:58;11.00;99.90
1778;DHT22;886;50.082;8.222;2023-04-07T13:18:25;11.00;99.90
1778;DHT22;886;50.082;8.222;2023-04-07T13:20:52;11.00;99.90
1778;DHT22;886;50.082;8.222;2023-04-07T13:23:41;11.00;99.90
1778;DHT22;886;50.082;8.222;2023-04-07T13:26:10;11.00;99.90
1778;DHT22;886;50.082;8.222;2023-04-07T13:28:37;11.10;99.90
1778;DHT22;886;50.082;8.222;2023-04-07T13:31:04;11.10;99.90
1778;DHT22;886;50.082;8.222;2023-04-07T13:33:49;11.20;99.90
1778;DHT22;886;50.082;8.222;2023-04-07T13:36:17;11.20;99.90
1778;DHT22;886;50.082;8.222;2023-04-07T13:38:48;11.20;99.90
1778;DHT22;886;50.082;8.222;2023-04-07T13:41:15;11.20;99.90
1778;DHT22;886;50.082;8.222;2023-04-07T13:44:00;11.20;99.90
1778;DHT22;886;50.082;8.222;2023-04-07T13:46:28;11.20;99.90
1778;DHT22;886;50.082;8.222;2023-04-07T13:48:55;11.20;99.90
1778;DHT22;886;50.082;8.222;2023-04-07T13:51:23;11.20;99.90
1778;DHT22;886;50.082;8.222;2023-04-07T13:53:51;11.20;99.90
1778;DHT22;886;50.082;8.222;2023-04-07T13:56:18;11.30;99.90
1778;DHT22;886;50.082;8.222;2023-04-07T13:58:45;11.30;99.90
1778;DHT22;886;50.082;8.222;2023-04-07T14:01:13;11.30;99.90
1778;DHT22;886;50.082;8.222;2023-04-07T14:03:41;11.30;99.90
1778;DHT22;886;50.082;8.222;2023-04-07T14:06:08;11.20;99.90
1778;DHT22;886;50.082;8.222;2023-04-07T14:08:36;11.20;99.90
1778;DHT22;886;50.082;8.222;2023-04-07T14:11:05;11.20;99.90
1778;DHT22;886;50.082;8.222;2023-04-07T14:13:32;11.20;99.90
1778;DHT22;886;50.082;8.222;2023-04-07T14:15:59;11.20;99.90
1778;DHT22;886;50.082;8.222;2023-04-07T14:18:27;11.20;99.90
1778;DHT22;886;50.082;8.222;2023-04-07T14:20:54;11.20;99.90
1778;DHT22;886;50.082;8.222;2023-04-07T14:23:21;11.30;99.90
1778;DHT22;886;50.082;8.222;2023-04-07T14:26:04;11.30;99.90
1778;DHT22;886;50.082;8.222;2023-04-07T14:28:31;11.30;99.90
1778;DHT22;886;50.082;8.222;2023-04-07T14:30:59;11.40;99.90
1778;DHT22;886;50.082;8.222;2023-04-07T14:33:26;11.30;99.90
1778;DHT22;886;50.082;8.222;2023-04-07T14:35:54;11.40;99.90
1778;DHT22;886;50.082;8.222;2023-04-07T14:38:21;11.40;99.90
1778;DHT22;886;50.082;8.222;2023-04-07T14:40:50;11.50;99.90
1778;DHT22;886;50.082;8.222;2023-04-07T14:43:19;11.50;99.90
1778;DHT22;886;50.082;8.222;2023-04-07T14:45:46;11.60;99.90
1778;DHT22;886;50.082;8.222;2023-04-07T14:48:14;11.60;99.90
1778;DHT22;886;50.082;8.222;2023-04-07T14:50:42;11.50;99.90
1778;DHT22;886;50.082;8.222;2023-04-07T14:53:10;11.50;99.90
1778;DHT22;886;50.082;8.222;2023-04-07T14:55:37;11.50;99.90
1778;DHT22;886;50.082;8.222;2023-04-07T14:58:04;11.40;99.90
1778;DHT22;886;50.082;8.222;2023-04-07T15:00:33;11.40;99.90
1778;DHT22;886;50.082;8.222;2023-04-07T15:03:00;11.40;99.90
1778;DHT22;886;50.082;8.222;2023-04-07T15:05:28;11.40;99.90
1778;DHT22;886;50.082;8.222;2023-04-07T15:07:55;11.40;99.90
1778;DHT22;886;50.082;8.222;2023-04-07T15:10:23;11.30;99.90
1778;DHT22;886;50.082;8.222;2023-04-07T15:12:50;11.40;99.90
1778;DHT22;886;50.082;8.222;2023-04-07T15:15:17;11.40;99.90
1778;DHT22;886;50.082;8.222;2023-04-07T15:17:45;11.50;99.90
1778;DHT22;886;50.082;8.222;2023-04-07T15:20:12;11.50;99.90
1778;DHT22;886;50.082;8.222;2023-04-07T15:22:40;11.50;99.90
1778;DHT22;886;50.082;8.222;2023-04-07T15:25:07;11.50;99.90
1778;DHT22;886;50.082;8.222;2023-04-07T15:27:35;11.50;99.90
1778;DHT22;886;50.082;8.222;2023-04-07T15:30:02;11.50;99.90
1778;DHT22;886;50.082;8.222;2023-04-07T15:32:30;11.40;99.90
1778;DHT22;886;50.082;8.222;2023-04-07T15:34:59;11.40;99.90
1778;DHT22;886;50.082;8.222;2023-04-07T15:37:26;11.40;99.90
1778;DHT22;886;50.082;8.222;2023-04-07T15:39:53;11.40;99.90
1778;DHT22;886;50.082;8.222;2023-04-07T15:42:20;11.40;99.90
1778;DHT22;886;50.082;8.222;2023-04-07T15:44:47;11.50;99.90
1778;DHT22;886;50.082;8.222;2023-04-07T15:47:16;11.40;99.90
1778;DHT22;886;50.082;8.222;2023-04-07T15:49:43;11.30;99.90
1778;DHT22;886;50.082;8.222;2023-04-07T15:52:12;11.30;99.90
1778;DHT22;886;50.082;8.222;2023-04-07T15:54:39;11.20;99.90
1778;DHT22;886;50.082;8.222;2023-04-07T15:57:07;11.30;99.90
1778;DHT22;886;50.082;8.222;2023-04-07T15:59:34;11.30;99.90
1778;DHT22;886;50.082;8.222;2023-04-07T16:02:01;11.30;99.90
1778;DHT22;886;50.082;8.222;2023-04-07T16:04:28;11.30;99.90
1778;DHT22;886;50.082;8.222;2023-04-07T16:06:56;11.30;99.90
1778;DHT22;886;50.082;8.222;2023-04-07T16:09:25;11.30;99.90
1778;DHT22;886;50.082;8.222;2023-04-07T16:11:52;11.30;99.90
1778;DHT22;886;50.082;8.222;2023-04-07T16:14:20;11.30;99.90
1778;DHT22;886;50.082;8.222;2023-04-07T16:16:47;11.30;99.90
1778;DHT22;886;50.082;8.222;2023-04-07T16:19:17;11.30;99.90
1778;DHT22;886;50.082;8.222;2023-04-07T16:21:44;11.30;99.90
1778;DHT22;886;50.082;8.222;2023-04-07T16:24:11;11.40;99.90
1778;DHT22;886;50.082;8.222;2023-04-07T16:26:40;11.30;99.90
1778;DHT22;886;50.082;8.222;2023-04-07T16:29:07;11.40;99.90
1778;DHT22;886;50.082;8.222;2023-04-07T16:31:34;11.40;99.90
1778;DHT22;886;50.082;8.222;2023-04-07T16:34:01;11.40;99.90
1778;DHT22;886;50.082;8.222;2023-04-07T16:36:29;11.40;99.90
1778;DHT22;886;50.082;8.222;2023-04-07T16:38:56;11.40;99.90
1778;DHT22;886;50.082;8.222;2023-04-07T16:41:23;11.30;99.90